Terminal Aerodrome Forecast
Issued by NWS Sterling, VA

Current Version | Previous Version | Graphics & Text | Print | Product List | Glossary On
Versions: 1 2 3 4 5 6 7 8 9 10 11 12 13 14 15 16 17 18 19 20 21 22
047
FTUS41 KLWX 062211 AAA
TAFMRB
TAF AMD
KMRB 062211Z 0622/0718 01006KT 3SM -RA OVC010
     FM070300 00000KT 3SM BR OVC008
     FM071200 30006KT P6SM BKN050
     FM071600 31008KT P6SM SCT050=

USA.gov is the U.S. government's official web portal to all federal, state and local government web resources and services.